Time;durP1;ratioP1;P1;durP2;ratioP2;P2;SDS_P1;SDS_P2;PMS_P1;PMS_P2;Temp;Humidity;BMP_temperature;BMP_pressure;BME280_temperature;BME280_humidity;BME280_pressure;Samples;Min_cycle;Max_cycle;Signal;HPM_P1;HPM_P2
2022/02/23 00:01:44;;;;;;;3.83;1.20;;;;;;;;;;4560933;27;20521;-59
2022/02/23 00:03:54;;;;;;;4.77;1.17;;;;;;;;;;4560857;28;20885;-58
2022/02/23 00:06:06;;;;;;;4.50;1.30;;;;;;;;;;4559875;28;20564;-59
2022/02/23 00:08:16;;;;;;;4.38;1.40;;;;;;;;;;4560278;28;20040;-58
2022/02/23 00:10:27;;;;;;;4.53;1.23;;;;;;;;;;4561774;28;20028;-59
2022/02/23 00:12:37;;;;;;;4.70;1.63;;;;;;;;;;4561862;28;20072;-59
2022/02/23 00:14:48;;;;;;;5.18;1.30;;;;;;;;;;4560492;28;20569;-59
2022/02/23 00:16:58;;;;;;;3.60;1.30;;;;;;;;;;4560278;28;20032;-59
2022/02/23 00:19:09;;;;;;;3.43;0.93;;;;;;;;;;4558939;28;26024;-60
2022/02/23 00:21:19;;;;;;;4.00;1.30;;;;;;;;;;4559552;28;26941;-59
2022/02/23 00:23:29;;;;;;;3.90;1.40;;;;;;;;;;4545544;28;20431;-59
2022/02/23 00:25:41;;;;;;;7.07;1.50;;;;;;;;;;4560218;28;34666;-59
2022/02/23 00:27:51;;;;;;;3.88;1.30;;;;;;;;;;4558321;28;20055;-59
2022/02/23 00:30:03;;;;;;;4.57;1.30;;;;;;;;;;4559534;28;20040;-59
2022/02/23 00:32:13;;;;;;;5.20;1.55;;;;;;;;;;4560018;28;20123;-59
2022/02/23 00:34:24;;;;;;;3.10;1.10;;;;;;;;;;4557586;28;20043;-59
2022/02/23 00:36:34;;;;;;;4.27;1.63;;;;;;;;;;4558190;28;20487;-59
2022/02/23 00:38:45;;;;;;;4.07;1.13;;;;;;;;;;4560346;28;20032;-59
2022/02/23 00:40:55;;;;;;;5.33;1.60;;;;;;;;;;4557540;28;20088;-59
2022/02/23 00:43:06;;;;;;;3.30;1.10;;;;;;;;;;4556606;28;20032;-59
2022/02/23 00:45:16;;;;;;;4.87;1.40;;;;;;;;;;4557942;28;20610;-59
2022/02/23 00:47:27;;;;;;;4.67;1.47;;;;;;;;;;4558835;27;20209;-59
2022/02/23 00:49:37;;;;;;;4.60;1.47;;;;;;;;;;4559107;28;20768;-58
2022/02/23 00:51:48;;;;;;;4.60;1.43;;;;;;;;;;4558893;28;20036;-59
2022/02/23 00:53:58;;;;;;;4.93;1.30;;;;;;;;;;4559618;28;21050;-58
2022/02/23 00:56:09;;;;;;;6.50;1.47;;;;;;;;;;4560025;28;24768;-59
2022/02/23 00:58:19;;;;;;;5.57;1.50;;;;;;;;;;4557352;28;20029;-59
2022/02/23 01:00:30;;;;;;;5.00;1.30;;;;;;;;;;4556512;28;20434;-59
2022/02/23 01:02:40;;;;;;;4.27;1.20;;;;;;;;;;4544295;28;20041;-59
2022/02/23 01:04:51;;;;;;;3.70;1.17;;;;;;;;;;4559973;28;20500;-59
2022/02/23 01:07:02;;;;;;;3.80;1.17;;;;;;;;;;4558672;28;20047;-59
2022/02/23 01:09:12;;;;;;;4.57;1.25;;;;;;;;;;4561932;28;20036;-59
2022/02/23 01:11:23;;;;;;;6.50;1.77;;;;;;;;;;4560726;28;20056;-59
2022/02/23 01:13:34;;;;;;;3.70;1.43;;;;;;;;;;4562397;28;20032;-59
2022/02/23 01:15:44;;;;;;;3.70;1.30;;;;;;;;;;4559272;28;20036;-59
2022/02/23 01:17:55;;;;;;;5.13;1.57;;;;;;;;;;4559786;27;20060;-59
2022/02/23 01:20:06;;;;;;;3.17;1.00;;;;;;;;;;4558922;27;23186;-59
2022/02/23 01:22:16;;;;;;;4.60;1.50;;;;;;;;;;4559683;28;20028;-59
2022/02/23 01:24:27;;;;;;;5.83;1.50;;;;;;;;;;4559284;28;20063;-60
2022/02/23 01:26:37;;;;;;;4.70;1.20;;;;;;;;;;4560272;28;24066;-59
2022/02/23 01:28:48;;;;;;;4.70;1.47;;;;;;;;;;4557996;27;20044;-59
2022/02/23 01:30:59;;;;;;;3.60;1.40;;;;;;;;;;4543305;28;20047;-59
2022/02/23 01:33:09;;;;;;;3.58;1.20;;;;;;;;;;4557405;28;20032;-59
2022/02/23 01:35:21;;;;;;;4.53;1.63;;;;;;;;;;4557036;28;20400;-59
2022/02/23 01:37:31;;;;;;;5.50;1.75;;;;;;;;;;4557502;28;20036;-59
2022/02/23 01:39:42;;;;;;;4.53;1.27;;;;;;;;;;4558402;28;42754;-59
2022/02/23 01:41:52;;;;;;;4.63;1.30;;;;;;;;;;4559003;28;20793;-59
2022/02/23 01:44:03;;;;;;;4.93;1.40;;;;;;;;;;4557509;28;20032;-59
2022/02/23 01:46:14;;;;;;;5.03;1.40;;;;;;;;;;4559095;28;20083;-59
2022/02/23 01:48:24;;;;;;;4.22;1.30;;;;;;;;;;4558672;28;20484;-58
2022/02/23 01:50:35;;;;;;;4.57;1.37;;;;;;;;;;4559465;28;20115;-59
2022/02/23 01:52:45;;;;;;;6.37;1.83;;;;;;;;;;4560065;28;20504;-59
2022/02/23 01:54:56;;;;;;;5.00;1.30;;;;;;;;;;4557776;28;20029;-59
2022/02/23 01:57:06;;;;;;;4.17;1.67;;;;;;;;;;4556756;28;20029;-59
2022/02/23 01:59:17;;;;;;;5.17;1.67;;;;;;;;;;4560142;28;20407;-59
2022/02/23 02:01:28;;;;;;;5.47;1.33;;;;;;;;;;4561708;28;20089;-59
2022/02/23 02:03:39;;;;;;;3.53;1.40;;;;;;;;;;4558229;28;20822;-59
2022/02/23 02:05:49;;;;;;;4.87;1.50;;;;;;;;;;4558354;28;20040;-59
2022/02/23 02:08:00;;;;;;;5.67;1.50;;;;;;;;;;4556683;28;20479;-59
2022/02/23 02:10:10;;;;;;;4.33;1.17;;;;;;;;;;4558732;28;20037;-58
2022/02/23 02:12:21;;;;;;;4.13;1.30;;;;;;;;;;4555932;28;20518;-58
2022/02/23 02:14:31;;;;;;;4.13;1.43;;;;;;;;;;4560577;28;20510;-59
2022/02/23 02:16:41;;;;;;;5.70;1.70;;;;;;;;;;4557028;28;20499;-58
2022/02/23 02:18:52;;;;;;;5.20;1.50;;;;;;;;;;4560333;28;20024;-58
2022/02/23 02:21:02;;;;;;;3.97;1.60;;;;;;;;;;4558996;28;20082;-58
2022/02/23 02:23:15;;;;;;;4.20;1.35;;;;;;;;;;4557267;28;20033;-58
2022/02/23 02:25:25;;;;;;;4.00;1.23;;;;;;;;;;4557861;28;20025;-58
2022/02/23 02:27:36;;;;;;;4.00;1.13;;;;;;;;;;4556067;28;20033;-59
2022/02/23 02:29:46;;;;;;;5.63;1.70;;;;;;;;;;4557796;28;23328;-59
2022/02/23 02:31:57;;;;;;;5.73;1.30;;;;;;;;;;4557197;28;20503;-58
2022/02/23 02:34:07;;;;;;;3.90;1.30;;;;;;;;;;4556975;28;22637;-60
2022/02/23 02:36:18;;;;;;;4.93;1.53;;;;;;;;;;4559750;28;20042;-59
2022/02/23 02:38:28;;;;;;;7.10;1.53;;;;;;;;;;4555586;28;20094;-59
2022/02/23 02:40:39;;;;;;;4.77;1.47;;;;;;;;;;4557635;28;20036;-58
2022/02/23 02:42:49;;;;;;;5.87;1.90;;;;;;;;;;4556960;28;20071;-59
2022/02/23 02:44:59;;;;;;;4.93;1.37;;;;;;;;;;4557347;28;20032;-59
2022/02/23 02:47:10;;;;;;;4.40;1.50;;;;;;;;;;4558116;28;20527;-58
2022/02/23 02:49:21;;;;;;;4.23;1.23;;;;;;;;;;4556653;28;20021;-58
2022/02/23 02:51:31;;;;;;;3.63;1.23;;;;;;;;;;4556723;28;20294;-58
2022/02/23 02:53:42;;;;;;;5.43;1.63;;;;;;;;;;4557788;28;20120;-58
2022/02/23 02:55:52;;;;;;;5.23;1.47;;;;;;;;;;4555708;28;20032;-58
2022/02/23 02:58:03;;;;;;;2.70;1.03;;;;;;;;;;4556627;28;33867;-59
2022/02/23 03:00:13;;;;;;;5.77;1.73;;;;;;;;;;4556529;28;20055;-58
2022/02/23 03:02:24;;;;;;;4.27;1.40;;;;;;;;;;4560277;28;20966;-59
2022/02/23 03:04:35;;;;;;;4.33;1.17;;;;;;;;;;4558110;28;20346;-58
2022/02/23 03:06:45;;;;;;;4.10;1.07;;;;;;;;;;4561835;28;20085;-58
2022/02/23 03:08:56;;;;;;;4.10;1.30;;;;;;;;;;4557337;27;20043;-58
2022/02/23 03:11:06;;;;;;;3.17;1.10;;;;;;;;;;4559581;28;20419;-58
2022/02/23 03:13:16;;;;;;;5.47;1.30;;;;;;;;;;4563284;28;22175;-59
2022/02/23 03:15:28;;;;;;;4.93;1.50;;;;;;;;;;4558269;28;20086;-59
2022/02/23 03:17:38;;;;;;;4.57;1.40;;;;;;;;;;4560148;27;20572;-59
2022/02/23 03:19:49;;;;;;;5.77;1.40;;;;;;;;;;4562637;28;20032;-58
2022/02/23 03:21:59;;;;;;;4.27;1.40;;;;;;;;;;4559991;28;20033;-59
2022/02/23 03:24:09;;;;;;;3.23;1.20;;;;;;;;;;4560092;28;21716;-58
2022/02/23 03:26:20;;;;;;;4.63;1.60;;;;;;;;;;4561337;28;20044;-59
2022/02/23 03:28:31;;;;;;;3.00;1.30;;;;;;;;;;4555404;28;20102;-58
2022/02/23 03:30:41;;;;;;;3.83;1.30;;;;;;;;;;4558119;28;20028;-58
2022/02/23 03:32:52;;;;;;;4.30;1.40;;;;;;;;;;4562547;28;20067;-59
2022/02/23 03:35:02;;;;;;;4.53;1.50;;;;;;;;;;4560202;28;20032;-59
2022/02/23 03:37:13;;;;;;;3.87;1.33;;;;;;;;;;4558971;28;20121;-58
2022/02/23 03:39:23;;;;;;;5.10;1.50;;;;;;;;;;4558137;28;20075;-59
2022/02/23 03:41:34;;;;;;;3.67;1.13;;;;;;;;;;4559564;28;20083;-58
2022/02/23 03:43:44;;;;;;;4.63;1.50;;;;;;;;;;4559029;28;20086;-58
2022/02/23 03:45:55;;;;;;;3.77;1.30;;;;;;;;;;4560823;28;20567;-58
2022/02/23 03:48:05;;;;;;;2.73;1.27;;;;;;;;;;4559771;28;30423;-59
2022/02/23 03:50:16;;;;;;;4.23;1.53;;;;;;;;;;4558912;28;20141;-59
2022/02/23 03:52:26;;;;;;;3.90;1.53;;;;;;;;;;4565275;28;20400;-59
2022/02/23 03:54:36;;;;;;;4.73;1.60;;;;;;;;;;4559103;28;20131;-58
2022/02/23 03:56:47;;;;;;;4.93;1.40;;;;;;;;;;4560751;28;20037;-59
2022/02/23 03:58:57;;;;;;;4.43;1.40;;;;;;;;;;4557029;28;20033;-58
2022/02/23 04:01:08;;;;;;;4.90;1.33;;;;;;;;;;4558153;27;22230;-58
2022/02/23 04:03:18;;;;;;;5.77;1.80;;;;;;;;;;4560927;28;20059;-59
2022/02/23 04:05:28;;;;;;;6.23;1.83;;;;;;;;;;4559257;28;20025;-59
2022/02/23 04:07:39;;;;;;;5.73;1.70;;;;;;;;;;4562290;27;20079;-59
2022/02/23 04:09:49;;;;;;;5.50;1.87;;;;;;;;;;4558377;28;20082;-60
2022/02/23 04:12:00;;;;;;;5.73;1.77;;;;;;;;;;4561737;28;20043;-58
2022/02/23 04:14:10;;;;;;;5.03;1.80;;;;;;;;;;4560840;28;20032;-59
2022/02/23 04:16:21;;;;;;;6.67;1.90;;;;;;;;;;4560929;28;20083;-59
2022/02/23 04:18:31;;;;;;;5.70;1.80;;;;;;;;;;4560902;28;20472;-59
2022/02/23 04:20:42;;;;;;;5.83;1.70;;;;;;;;;;4560055;28;20047;-59
2022/02/23 04:22:52;;;;;;;6.33;1.60;;;;;;;;;;4558844;28;20071;-58
2022/02/23 04:25:03;;;;;;;4.60;1.83;;;;;;;;;;4559513;28;20452;-58
2022/02/23 04:27:14;;;;;;;5.10;1.50;;;;;;;;;;4563481;28;20043;-58
2022/02/23 04:29:24;;;;;;;7.07;1.77;;;;;;;;;;4559904;28;22454;-59
2022/02/23 04:31:35;;;;;;;5.27;1.60;;;;;;;;;;4560538;28;20033;-59
2022/02/23 04:33:46;;;;;;;4.93;1.77;;;;;;;;;;4561146;28;20305;-58
2022/02/23 04:35:57;;;;;;;4.57;1.60;;;;;;;;;;4559896;28;20032;-59
2022/02/23 04:38:08;;;;;;;5.35;1.83;;;;;;;;;;4561250;28;20044;-59
2022/02/23 04:40:18;;;;;;;5.32;1.70;;;;;;;;;;4560048;28;20049;-58
2022/02/23 04:42:29;;;;;;;6.37;1.70;;;;;;;;;;4561379;28;20037;-59
2022/02/23 04:44:39;;;;;;;3.60;1.50;;;;;;;;;;4562257;28;20404;-59
2022/02/23 04:46:49;;;;;;;5.23;1.50;;;;;;;;;;4558564;28;20068;-61
2022/02/23 04:49:00;;;;;;;4.67;1.60;;;;;;;;;;4558955;28;20079;-58
2022/02/23 04:51:11;;;;;;;5.88;1.90;;;;;;;;;;4558399;28;20194;-59
2022/02/23 04:53:22;;;;;;;6.15;1.80;;;;;;;;;;4563084;28;20039;-59
2022/02/23 04:55:32;;;;;;;4.77;1.80;;;;;;;;;;4560811;28;20107;-59
2022/02/23 04:57:43;;;;;;;3.70;1.40;;;;;;;;;;4561090;28;20108;-59
2022/02/23 04:59:54;;;;;;;5.53;1.70;;;;;;;;;;4559008;28;20044;-59
2022/02/23 05:02:09;;;;;;;5.95;1.80;;;;;;;;;;4560544;28;20114;-58
2022/02/23 05:04:21;;;;;;;6.15;1.80;;;;;;;;;;4559532;28;20169;-58
2022/02/23 05:06:32;;;;;;;4.05;1.55;;;;;;;;;;4559568;28;20120;-59
2022/02/23 05:08:42;;;;;;;8.17;2.10;;;;;;;;;;4559346;28;37978;-58
2022/02/23 05:10:57;;;;;;;6.17;1.90;;;;;;;;;;4560354;28;20029;-58
2022/02/23 05:13:07;;;;;;;5.45;1.63;;;;;;;;;;4560983;28;20024;-59
2022/02/23 05:15:18;;;;;;;3.97;1.55;;;;;;;;;;4559918;28;20117;-59
2022/02/23 05:17:29;;;;;;;7.13;1.63;;;;;;;;;;4563309;27;20039;-59
2022/02/23 05:19:40;;;;;;;4.73;1.50;;;;;;;;;;4560097;28;31000;-58
2022/02/23 05:21:50;;;;;;;4.73;1.73;;;;;;;;;;4573167;27;20047;-60
2022/02/23 05:24:00;;;;;;;4.30;1.50;;;;;;;;;;4558918;28;30535;-59
2022/02/23 05:26:14;;;;;;;4.97;1.57;;;;;;;;;;4561607;27;20039;-59
2022/02/23 05:28:24;;;;;;;5.95;1.80;;;;;;;;;;4557489;27;20041;-58
2022/02/23 05:30:35;;;;;;;3.83;1.77;;;;;;;;;;4559649;28;20378;-58
2022/02/23 05:32:45;;;;;;;5.90;1.60;;;;;;;;;;4560614;28;20603;-58
2022/02/23 05:34:56;;;;;;;6.20;1.83;;;;;;;;;;4556164;28;20029;-59
2022/02/23 05:37:06;;;;;;;3.30;1.40;;;;;;;;;;4559644;28;20031;-59
2022/02/23 05:39:17;;;;;;;5.20;1.80;;;;;;;;;;4556951;28;20037;-58
2022/02/23 05:41:27;;;;;;;6.37;1.90;;;;;;;;;;4557545;28;20539;-59
2022/02/23 05:43:38;;;;;;;6.50;1.90;;;;;;;;;;4559299;28;20334;-59
2022/02/23 05:45:48;;;;;;;4.67;1.80;;;;;;;;;;4556251;28;20090;-59
2022/02/23 05:47:59;;;;;;;6.83;2.07;;;;;;;;;;4556874;28;20459;-58
2022/02/23 05:50:09;;;;;;;4.63;1.70;;;;;;;;;;4558739;28;20496;-59
2022/02/23 05:52:20;;;;;;;5.27;1.43;;;;;;;;;;4558848;28;20703;-59
2022/02/23 05:54:31;;;;;;;5.33;1.70;;;;;;;;;;4560736;28;20040;-58
2022/02/23 05:56:43;;;;;;;5.90;1.77;;;;;;;;;;4557810;28;20747;-59
2022/02/23 05:58:54;;;;;;;7.43;2.00;;;;;;;;;;4558953;28;20040;-58
2022/02/23 06:01:04;;;;;;;4.82;1.80;;;;;;;;;;4557186;28;20041;-58
2022/02/23 06:03:15;;;;;;;4.40;1.50;;;;;;;;;;4557638;28;20250;-58
2022/02/23 06:05:25;;;;;;;6.20;2.13;;;;;;;;;;4556591;28;20143;-58
2022/02/23 06:07:36;;;;;;;6.53;2.57;;;;;;;;;;4559058;27;20397;-59
2022/02/23 06:09:46;;;;;;;6.07;1.90;;;;;;;;;;4557246;28;20408;-58
2022/02/23 06:11:56;;;;;;;5.07;2.00;;;;;;;;;;4558825;28;20032;-59
2022/02/23 06:14:07;;;;;;;7.23;2.50;;;;;;;;;;4561496;28;20039;-58
2022/02/23 06:16:18;;;;;;;5.57;1.80;;;;;;;;;;4557312;28;20835;-59
2022/02/23 06:18:29;;;;;;;5.65;1.90;;;;;;;;;;4558412;28;20029;-58
2022/02/23 06:20:40;;;;;;;5.70;1.77;;;;;;;;;;4558593;28;20094;-58
2022/02/23 06:22:50;;;;;;;6.57;2.17;;;;;;;;;;4558221;28;20098;-58
2022/02/23 06:25:01;;;;;;;4.27;1.47;;;;;;;;;;4558845;28;20034;-59
2022/02/23 06:27:13;;;;;;;5.37;1.60;;;;;;;;;;4558887;28;20568;-58
2022/02/23 06:29:24;;;;;;;4.60;1.50;;;;;;;;;;4556745;28;20037;-59
2022/02/23 06:31:34;;;;;;;4.30;1.93;;;;;;;;;;4555928;28;20992;-59
2022/02/23 06:33:46;;;;;;;4.93;1.57;;;;;;;;;;4560489;28;20116;-59
2022/02/23 06:35:56;;;;;;;7.07;1.98;;;;;;;;;;4559513;28;20037;-59
2022/02/23 06:38:07;;;;;;;5.37;2.00;;;;;;;;;;4554526;28;20040;-59
2022/02/23 06:40:17;;;;;;;4.40;1.67;;;;;;;;;;4559744;28;20072;-59
2022/02/23 06:42:28;;;;;;;6.00;1.53;;;;;;;;;;4559304;28;20691;-59
2022/02/23 06:44:38;;;;;;;4.87;1.80;;;;;;;;;;4559668;28;20047;-59
2022/02/23 06:46:49;;;;;;;6.30;1.60;;;;;;;;;;4561395;28;20032;-59
2022/02/23 06:48:59;;;;;;;3.33;1.57;;;;;;;;;;4558433;28;20028;-59
2022/02/23 06:51:15;;;;;;;6.10;1.97;;;;;;;;;;4559311;28;20072;-59
2022/02/23 06:53:25;;;;;;;5.57;1.55;;;;;;;;;;4559635;28;20059;-59
2022/02/23 06:55:36;;;;;;;5.13;1.97;;;;;;;;;;4561842;28;20043;-59
2022/02/23 06:57:46;;;;;;;5.50;1.73;;;;;;;;;;4547435;28;20036;-59
2022/02/23 06:59:56;;;;;;;5.47;1.80;;;;;;;;;;4562325;28;20044;-59
2022/02/23 07:02:09;;;;;;;7.50;1.80;;;;;;;;;;4558769;28;20059;-59
2022/02/23 07:04:19;;;;;;;6.55;1.95;;;;;;;;;;4559440;28;20049;-59
2022/02/23 07:06:31;;;;;;;4.90;1.70;;;;;;;;;;4560393;28;20025;-59
2022/02/23 07:08:44;;;;;;;7.45;2.05;;;;;;;;;;4560006;28;21240;-59
2022/02/23 07:10:55;;;;;;;4.32;1.65;;;;;;;;;;4561111;28;20043;-59
2022/02/23 07:13:07;;;;;;;3.07;1.70;;;;;;;;;;4559458;28;20137;-59
2022/02/23 07:15:18;;;;;;;4.97;1.70;;;;;;;;;;4560401;28;20114;-59
2022/02/23 07:17:29;;;;;;;6.18;1.70;;;;;;;;;;4560511;28;20041;-59
2022/02/23 07:19:39;;;;;;;5.73;1.97;;;;;;;;;;4560555;28;20037;-59
2022/02/23 07:21:50;;;;;;;7.50;2.00;;;;;;;;;;4557842;28;20072;-59
2022/02/23 07:24:01;;;;;;;5.83;1.80;;;;;;;;;;4560909;28;20036;-59
2022/02/23 07:26:14;;;;;;;4.60;1.60;;;;;;;;;;4559738;28;20043;-59
2022/02/23 07:28:25;;;;;;;3.78;1.60;;;;;;;;;;4559187;28;20609;-58
2022/02/23 07:30:35;;;;;;;7.20;1.93;;;;;;;;;;4556350;28;20689;-59
2022/02/23 07:32:45;;;;;;;4.93;1.73;;;;;;;;;;4559610;28;20036;-59
2022/02/23 07:34:56;;;;;;;5.40;1.87;;;;;;;;;;4559691;28;20139;-58
2022/02/23 07:37:06;;;;;;;4.97;1.83;;;;;;;;;;4563221;28;20028;-59
2022/02/23 07:39:17;;;;;;;5.90;2.03;;;;;;;;;;4558782;28;20051;-59
2022/02/23 07:41:29;;;;;;;4.57;1.77;;;;;;;;;;4561059;28;20052;-58
2022/02/23 07:43:40;;;;;;;4.72;1.60;;;;;;;;;;4560658;28;20032;-59
2022/02/23 07:45:53;;;;;;;5.53;1.80;;;;;;;;;;4558530;28;20500;-59
2022/02/23 07:48:04;;;;;;;6.70;2.03;;;;;;;;;;4559488;27;20079;-59
2022/02/23 07:50:16;;;;;;;;;;;;;;;;;;4560104;28;20040;-58
2022/02/23 07:52:29;;;;;;;;;;;;;;;;;;4562069;28;19916;-59
2022/02/23 07:54:39;;;;;;;6.60;2.30;;;;;;;;;;4560550;28;19916;-58
2022/02/23 07:56:50;;;;;;;4.53;1.87;;;;;;;;;;4560642;28;20029;-59
2022/02/23 07:59:00;;;;;;;5.40;1.67;;;;;;;;;;4560340;28;27676;-58
2022/02/23 08:01:34;;;;;;;5.00;1.80;;;;;;;;;;4559245;28;27641;-59
2022/02/23 08:03:46;;;;;;;6.07;1.95;;;;;;;;;;4558454;28;20048;-59
2022/02/23 08:05:57;;;;;;;6.50;1.80;;;;;;;;;;4558228;28;20219;-59
2022/02/23 08:08:08;;;;;;;6.07;2.07;;;;;;;;;;4557873;27;20051;-59
2022/02/23 08:10:18;;;;;;;5.88;1.90;;;;;;;;;;4559126;28;20085;-58
2022/02/23 08:12:29;;;;;;;5.00;1.57;;;;;;;;;;4560157;28;20032;-59
2022/02/23 08:14:40;;;;;;;4.60;1.70;;;;;;;;;;4559530;28;20032;-58
2022/02/23 08:19:31;;;;;;;7.88;2.90;;;;;;;;;;4559642;28;20039;-59
2022/02/23 08:21:41;;;;;;;5.00;1.73;;;;;;;;;;4560116;28;20050;-59
2022/02/23 08:23:52;;;;;;;5.07;1.60;;;;;;;;;;4560249;28;20736;-59
2022/02/23 08:26:03;;;;;;;5.07;1.63;;;;;;;;;;4559309;28;20493;-59
2022/02/23 08:28:13;;;;;;;5.60;1.90;;;;;;;;;;4557590;28;20038;-59
2022/02/23 08:30:24;;;;;;;6.13;1.90;;;;;;;;;;4560963;28;20127;-58
2022/02/23 08:32:34;;;;;;;5.75;1.95;;;;;;;;;;4559179;28;20516;-59
2022/02/23 08:34:46;;;;;;;5.27;1.73;;;;;;;;;;4557804;28;20036;-59
2022/02/23 08:36:57;;;;;;;6.50;1.95;;;;;;;;;;4558903;27;20040;-59
2022/02/23 08:39:08;;;;;;;4.70;1.70;;;;;;;;;;4556317;28;20500;-59
2022/02/23 08:41:19;;;;;;;4.33;1.60;;;;;;;;;;4558485;28;20128;-59
2022/02/23 08:43:29;;;;;;;6.90;1.98;;;;;;;;;;4560164;28;20047;-59
2022/02/23 08:45:41;;;;;;;3.77;1.50;;;;;;;;;;4557428;28;20039;-59
2022/02/23 08:47:52;;;;;;;5.00;1.80;;;;;;;;;;4559948;28;20033;-59
2022/02/23 08:50:03;;;;;;;5.20;1.40;;;;;;;;;;4556426;28;28937;-59
2022/02/23 08:52:13;;;;;;;5.57;1.90;;;;;;;;;;4557234;28;20404;-59
2022/02/23 08:54:23;;;;;;;4.13;1.47;;;;;;;;;;4561052;28;20802;-59
2022/02/23 08:56:34;;;;;;;6.40;2.33;;;;;;;;;;4558935;28;20093;-59
2022/02/23 08:58:44;;;;;;;5.23;1.67;;;;;;;;;;4560063;27;20032;-59
2022/02/23 09:00:55;;;;;;;5.43;1.50;;;;;;;;;;4557720;28;20045;-60
2022/02/23 09:03:06;;;;;;;4.87;1.50;;;;;;;;;;4558743;28;20085;-59
2022/02/23 09:05:16;;;;;;;4.80;1.97;;;;;;;;;;4558552;28;20033;-70
2022/02/23 09:07:26;;;;;;;3.97;1.80;;;;;;;;;;4556993;28;20033;-71
2022/02/23 09:09:37;;;;;;;3.80;1.30;;;;;;;;;;4557336;28;20037;-69
2022/02/23 09:11:48;;;;;;;5.20;1.50;;;;;;;;;;4556789;28;20167;-67
2022/02/23 09:13:58;;;;;;;5.60;1.50;;;;;;;;;;4559771;28;20067;-64
2022/02/23 09:16:09;;;;;;;7.20;1.42;;;;;;;;;;4560197;28;20136;-62
2022/02/23 09:18:20;;;;;;;6.53;2.00;;;;;;;;;;4558523;28;20059;-67
2022/02/23 09:20:31;;;;;;;4.97;1.50;;;;;;;;;;4559783;28;20048;-57
2022/02/23 09:22:41;;;;;;;5.30;1.75;;;;;;;;;;4557846;28;20031;-56
2022/02/23 09:24:53;;;;;;;4.57;1.57;;;;;;;;;;4559093;28;20843;-56
2022/02/23 09:27:03;;;;;;;5.43;1.42;;;;;;;;;;4557801;28;20933;-56
2022/02/23 09:29:14;;;;;;;5.37;1.90;;;;;;;;;;4559179;28;20036;-56
2022/02/23 09:31:24;;;;;;;4.20;1.30;;;;;;;;;;4559691;28;20040;-56
2022/02/23 09:33:35;;;;;;;4.27;1.70;;;;;;;;;;4557399;28;20032;-56
2022/02/23 09:35:48;;;;;;;5.05;1.52;;;;;;;;;;4557414;28;20588;-56
2022/02/23 09:37:58;;;;;;;5.90;1.67;;;;;;;;;;4558253;28;20135;-56
2022/02/23 09:40:14;;;;;;;5.60;2.00;;;;;;;;;;4558076;27;20434;-57
2022/02/23 09:42:29;;;;;;;4.22;1.60;;;;;;;;;;4557286;28;20127;-56
2022/02/23 09:44:41;;;;;;;4.85;1.63;;;;;;;;;;4555571;28;20048;-58
2022/02/23 09:46:51;;;;;;;4.28;1.65;;;;;;;;;;4555832;28;20044;-57
2022/02/23 09:49:03;;;;;;;5.53;1.73;;;;;;;;;;4557725;27;20075;-57
2022/02/23 09:51:13;;;;;;;6.68;1.77;;;;;;;;;;4557795;28;20133;-55
2022/02/23 09:53:24;;;;;;;5.20;1.90;;;;;;;;;;4560172;28;20115;-57
2022/02/23 09:55:34;;;;;;;4.00;1.50;;;;;;;;;;4558042;28;20051;-57
2022/02/23 09:57:45;;;;;;;5.53;1.80;;;;;;;;;;4557952;27;20254;-57
2022/02/23 09:59:56;;;;;;;4.73;1.70;;;;;;;;;;4558760;28;24824;-57
2022/02/23 10:02:10;;;;;;;4.68;1.42;;;;;;;;;;4557265;28;20754;-57
2022/02/23 10:04:22;;;;;;;4.45;1.60;;;;;;;;;;4557537;28;20036;-57
2022/02/23 10:06:34;;;;;;;6.00;1.55;;;;;;;;;;4544162;28;20029;-57
2022/02/23 10:08:45;;;;;;;4.55;1.52;;;;;;;;;;4557221;28;20060;-57
2022/02/23 10:10:55;;;;;;;5.30;1.60;;;;;;;;;;4559986;28;20359;-58
2022/02/23 10:13:07;;;;;;;4.57;1.40;;;;;;;;;;4559516;28;20037;-57
2022/02/23 10:15:17;;;;;;;;;;;;;;;;;;4559418;28;20047;-57
2022/02/23 10:17:37;;;;;;;4.80;1.55;;;;;;;;;;4559229;28;19923;-57
2022/02/23 10:19:50;;;;;;;4.82;1.60;;;;;;;;;;4561831;28;20081;-57
2022/02/23 10:22:02;;;;;;;4.18;1.80;;;;;;;;;;4559068;28;20047;-58
2022/02/23 10:24:38;;;;;;;3.67;1.25;;;;;;;;;;4562392;28;20041;-56
2022/02/23 10:27:05;;;;;;;4.40;1.38;;;;;;;;;;4559808;28;20159;-58
2022/02/23 10:29:15;;;;;;;4.68;1.35;;;;;;;;;;4560854;28;20522;-56
2022/02/23 10:31:25;;;;;;;4.80;1.50;;;;;;;;;;4560117;28;20060;-56
2022/02/23 10:33:38;;;;;;;4.27;1.40;;;;;;;;;;4561267;28;20035;-56
2022/02/23 10:35:54;;;;;;;3.70;1.20;;;;;;;;;;4562409;28;20047;-56
2022/02/23 10:38:08;;;;;;;7.00;1.92;;;;;;;;;;4561719;27;20040;-56
2022/02/23 10:40:18;;;;;;;5.13;1.60;;;;;;;;;;4564663;27;20029;-56
2022/02/23 10:42:32;;;;;;;3.67;1.40;;;;;;;;;;4560491;28;22634;-56
2022/02/23 10:44:46;;;;;;;4.65;1.40;;;;;;;;;;4558310;28;20037;-56
2022/02/23 10:47:00;;;;;;;5.25;1.35;;;;;;;;;;4561841;27;20032;-56
2022/02/23 10:49:11;;;;;;;3.63;1.25;;;;;;;;;;4549571;28;20037;-56
2022/02/23 10:51:35;;;;;;;2.53;1.20;;;;;;;;;;4559942;28;20415;-56
2022/02/23 10:53:46;;;;;;;4.35;1.48;;;;;;;;;;4560250;28;20615;-57
2022/02/23 10:55:57;;;;;;;5.13;1.40;;;;;;;;;;4560503;28;20107;-56
2022/02/23 10:58:07;;;;;;;5.65;1.42;;;;;;;;;;4559266;28;20032;-56
2022/02/23 11:00:24;;;;;;;2.57;0.90;;;;;;;;;;4559372;28;20575;-56
2022/02/23 11:02:34;;;;;;;3.85;1.48;;;;;;;;;;4562086;28;20024;-56
2022/02/23 11:04:45;;;;;;;3.27;1.20;;;;;;;;;;4559562;28;20036;-56
2022/02/23 11:06:56;;;;;;;4.38;1.30;;;;;;;;;;4559902;28;20448;-58
2022/02/23 11:09:07;;;;;;;3.57;1.20;;;;;;;;;;4559676;28;20044;-56
2022/02/23 11:11:19;;;;;;;3.53;1.23;;;;;;;;;;4564686;28;20908;-56
2022/02/23 11:13:29;;;;;;;;;;;;;;;;;;4567723;28;20078;-56
2022/02/23 11:15:43;;;;;;;3.63;1.10;;;;;;;;;;4557373;28;19927;-56
2022/02/23 11:17:55;;;;;;;2.90;1.10;;;;;;;;;;4558259;28;20076;-57
2022/02/23 11:20:07;;;;;;;3.78;1.05;;;;;;;;;;4560766;28;20044;-56
2022/02/23 11:22:17;;;;;;;2.90;1.10;;;;;;;;;;4559993;27;20040;-56
2022/02/23 11:24:28;;;;;;;3.67;1.23;;;;;;;;;;4556977;28;20037;-56
2022/02/23 11:26:41;;;;;;;4.20;1.17;;;;;;;;;;4558183;28;20051;-56
2022/02/23 11:29:21;;;;;;;3.80;1.17;;;;;;;;;;4560076;27;20053;-56
2022/02/23 11:31:36;;;;;;;3.55;1.20;;;;;;;;;;4561043;28;20533;-57
2022/02/23 11:33:47;;;;;;;3.95;1.02;;;;;;;;;;4561797;28;20104;-57
2022/02/23 11:35:58;;;;;;;3.70;1.23;;;;;;;;;;4559069;28;20040;-58
2022/02/23 11:38:09;;;;;;;4.50;1.30;;;;;;;;;;4559662;28;21260;-63
2022/02/23 11:40:22;;;;;;;3.73;1.13;;;;;;;;;;4562885;28;20040;-58
2022/02/23 11:42:36;;;;;;;3.42;1.35;;;;;;;;;;4561583;28;20029;-58
2022/02/23 11:44:50;;;;;;;3.78;1.13;;;;;;;;;;4560554;28;20040;-58
2022/02/23 11:47:38;;;;;;;4.47;1.42;;;;;;;;;;4557621;28;20070;-59
2022/02/23 11:50:11;;;;;;;3.03;1.10;;;;;;;;;;4558355;28;20167;-59
2022/02/23 11:53:02;;;;;;;3.38;1.15;;;;;;;;;;4560032;28;20048;-58
2022/02/23 11:55:52;;;;;;;5.38;1.35;;;;;;;;;;4558129;28;20044;-59
2022/02/23 11:58:02;;;;;;;12.30;7.05;;;;;;;;;;4560305;28;20109;-58
2022/02/23 12:00:35;;;;;;;7.23;3.50;;;;;;;;;;4560200;28;20739;-58
2022/02/23 12:03:09;;;;;;;5.72;1.48;;;;;;;;;;4551902;28;20135;-58
2022/02/23 12:05:45;;;;;;;6.00;1.70;;;;;;;;;;4560942;28;20040;-58
2022/02/23 12:07:57;;;;;;;2.60;1.10;;;;;;;;;;4558287;28;20109;-57
2022/02/23 12:10:08;;;;;;;3.45;1.00;;;;;;;;;;4559930;28;20638;-58
2022/02/23 12:12:38;;;;;;;3.25;1.30;;;;;;;;;;4559671;28;20040;-57
2022/02/23 12:15:09;;;;;;;4.25;1.30;;;;;;;;;;4548179;28;20040;-57
2022/02/23 12:17:47;;;;;;;3.35;1.27;;;;;;;;;;4557070;27;20572;-57
2022/02/23 12:19:58;;;;;;;2.00;0.95;;;;;;;;;;4570224;27;20036;-57
2022/02/23 12:22:08;;;;;;;2.80;1.10;;;;;;;;;;4559496;28;20464;-57
2022/02/23 12:24:23;;;;;;;4.47;1.40;;;;;;;;;;4558583;28;20029;-56
2022/02/23 12:26:37;;;;;;;3.05;1.33;;;;;;;;;;4555318;28;21116;-57
2022/02/23 12:28:51;;;;;;;2.60;1.52;;;;;;;;;;4557843;27;20046;-62
2022/02/23 12:31:04;;;;;;;2.90;1.10;;;;;;;;;;4557759;28;20656;-57
2022/02/23 12:33:15;;;;;;;2.78;1.38;;;;;;;;;;4558184;28;20040;-58
2022/02/23 12:35:26;;;;;;;2.92;1.17;;;;;;;;;;4558754;28;20033;-58
2022/02/23 12:37:36;;;;;;;3.17;1.20;;;;;;;;;;4558436;28;20644;-58
2022/02/23 12:39:48;;;;;;;6.53;2.10;;;;;;;;;;4557901;28;27086;-58
2022/02/23 12:42:07;;;;;;;2.50;1.55;;;;;;;;;;4558288;28;20596;-58
2022/02/23 12:44:23;;;;;;;2.50;1.08;;;;;;;;;;4545098;28;20053;-58
2022/02/23 12:46:45;;;;;;;3.15;1.13;;;;;;;;;;4562356;28;20669;-57
2022/02/23 12:48:57;;;;;;;3.42;1.20;;;;;;;;;;4558407;28;20027;-57
2022/02/23 12:51:08;;;;;;;;;;;;;;;;;;4557944;28;20025;-58
2022/02/23 12:53:18;;;;;;;5.07;2.13;;;;;;;;;;4558230;28;19916;-58
2022/02/23 12:55:30;;;;;;;4.40;1.40;;;;;;;;;;4558552;28;24797;-57
2022/02/23 12:57:44;;;;;;;3.30;1.20;;;;;;;;;;4558962;28;20033;-59
2022/02/23 12:59:58;;;;;;;3.47;0.93;;;;;;;;;;4540760;28;20039;-59
2022/02/23 13:02:09;;;;;;;2.80;0.85;;;;;;;;;;4558954;28;20756;-58
2022/02/23 13:04:35;;;;;;;4.72;1.42;;;;;;;;;;4546500;28;21134;-58
2022/02/23 13:06:50;;;;;;;3.25;1.00;;;;;;;;;;4557862;28;20024;-58
2022/02/23 13:09:05;;;;;;;5.47;1.33;;;;;;;;;;4559758;28;20040;-58
2022/02/23 13:11:15;;;;;;;3.10;1.13;;;;;;;;;;4554392;28;20036;-58
2022/02/23 13:13:36;;;;;;;3.47;1.20;;;;;;;;;;4558253;28;20029;-58
2022/02/23 13:15:58;;;;;;;3.27;0.90;;;;;;;;;;4557496;28;20062;-58
2022/02/23 13:18:10;;;;;;;3.53;1.15;;;;;;;;;;4559299;28;20264;-58